Aérodrome :
LOGIN :

S'inscrire | Disclaimer

   EN    FR    IT 

 










Légende :    VFR   VFR Marginal   IFR   IFR Intensif   IFR Très Intensif
Visi : 
Plafond : 
>= 8 km
>= 3000ft
5 à 8 km
1000 à 3000 ft
1500m à 5 km
500 à 1000 ft
800 à 1500m
200 à 500 ft
< 800m
< 200 ft
Symboles :   Orages  Brouillard  Fortes neiges  Fortes précipitations  Vent > 20 kt
SIGMETs :   Divers  Orages  Givrage  Turbulence  Onde Orograph.  Cendres Volcan.






- Altitude de l'aérodrome : 273 ft


EGXT - RAF Wittering Stamford

DERNIER METAR :
  • 171521Z 25012KT 9999 FEW020 BKN080 05/02 Q1011 /RMK BLU

METARs EXPIRÉS :
  • 171450Z 27014KT 9999 FEW020 BKN050 05/02 Q1011 RMK BLU
  • 171420Z 27019KT 9999 -RA FEW015 BKN047 05/02 Q1010 RMK BLU
  • 171350Z 27019KT 9999 -RA SCT014 BKN050 05/03 Q1009 RMK GRN
  • 171320Z 28022KT 9999 -RA SCT013 BKN043 BKN090 05/03 Q1008 RMK GRN
  • 171250Z 28020G30KT 9999 -RA SCT011 BKN015 BKN031 05/03 Q1008 GRN

TAF TAF EGXT
Valide du 17 à 15h jusqu'au 17 à 18h UTC


171329Z 1715/1718 27013KT 9999 FEW015



MET'MAP, la Météo Aéronautique d'un coup d'oeil ! - Copyright ORBIFLY Décembre 2007 - Disclaimer

ORBIFLY MET'MAP TEAM :

Programmation & Développement : Alexandra Zaïnal
Sur une idée originale de : Baudouin d'Aumeries
Assistance à la programmation : Marc-Olivier Méhu
Soutien technique & logistique : Manuel Goepfert

Contact : metmap@orbifly.com




SOURCES & CREDITS :

   NOAA